Portada
METAR-TAF:

METAR-TAF

Aeropuertos :

Posadas, Argentina

Aeropuerto Internacional de Posadas Libertador General José de San Martín

latitud: 27-22S, longitud: 055-58W, altitud: 131 m

Observación

El informe se hizo hace 1 hora y 57 minutos, a las 18:00 UTC
Viento 8 kt del sur
Temperatura 28°C
Humedad 22%
Presión 1012 hPa
Visibilidad 10 km o más
sin nubes por debajo de 1500 m y sin presencia de cumulonimbus.

METAR: SARP 191800Z 18008KT CAVOK 28/04 Q1012

Hora: 16:57 (19:57 UTC)

Pronóstico

El informe se hizo hace 2 horas y 57 minutos, a las 17:00 UTC
Pronóstico válido del 19 a las 18 UTC al 20 a las 18 UTC
Viento 10 kt del este-sureste
Visibilidad 10 km o más
sin nubes por debajo de 1500 m y sin presencia de cumulonimbus.

TAF: SARP 191700Z 1918/2018 12010KT CAVOK TX31/2018Z TN13/2009Z

Observaciones y pronósticos meteorológicos de más de 4000 aeropuertos (mensajes METAR y TAF).

Los puntos amarillos y rojos representan las estaciones disponibles.

Ponga el ratón en el punto deseado para ver el nombre de la estación.

Haga clic para ver las observaciones y los pronósticos meteorológicos.

Para cambiar el mapa : haga clic en los botones verdes con una cruz de color negro para hacer un zoom, en el botón verde con un guión para alejar o en las flechas verdes para mapas adyacentes.


METAR-TAF: